createdAt,value
2019-03-08T00:00:14.328Z,0.00
2019-03-08T00:01:14.275Z,0.00
2019-03-08T00:02:14.268Z,0.00
2019-03-08T00:03:14.271Z,0.00
2019-03-08T00:04:14.254Z,0.00
2019-03-08T00:05:14.249Z,0.00
2019-03-08T00:06:14.246Z,0.00
2019-03-08T00:07:14.223Z,0.00
2019-03-08T00:08:14.217Z,0.00
2019-03-08T00:09:14.212Z,0.00
2019-03-08T00:10:14.203Z,0.00
2019-03-08T00:11:14.206Z,0.00
2019-03-08T00:12:14.186Z,0.00
2019-03-08T00:13:14.186Z,0.00
2019-03-08T00:14:14.169Z,0.00
2019-03-08T00:15:14.161Z,0.00
2019-03-08T00:16:14.146Z,0.00
2019-03-08T00:17:14.148Z,0.00
2019-03-08T00:18:14.132Z,0.00
2019-03-08T00:19:14.128Z,0.00
2019-03-08T00:20:14.122Z,0.00
2019-03-08T00:21:14.111Z,0.00
2019-03-08T00:22:14.113Z,0.00
2019-03-08T00:23:14.097Z,0.00
2019-03-08T00:24:14.087Z,0.00
2019-03-08T00:25:14.077Z,0.00
2019-03-08T00:26:14.069Z,0.00
2019-03-08T00:27:14.060Z,0.00
2019-03-08T00:28:14.056Z,0.00
2019-03-08T00:29:14.043Z,0.00
2019-03-08T00:30:14.031Z,0.00
2019-03-08T00:31:14.031Z,0.00
2019-03-08T00:32:14.028Z,0.00
2019-03-08T00:33:14.011Z,0.00
2019-03-08T00:34:14.004Z,0.00
2019-03-08T00:35:14.002Z,0.00
2019-03-08T00:36:13.992Z,0.00
2019-03-08T00:37:13.981Z,0.00
2019-03-08T00:38:13.970Z,0.00
2019-03-08T00:39:13.959Z,0.00
2019-03-08T00:40:13.953Z,0.00
2019-03-08T00:41:13.955Z,0.00
2019-03-08T00:42:13.937Z,0.00
2019-03-08T00:43:13.929Z,0.00
2019-03-08T00:44:13.922Z,0.00
2019-03-08T00:45:13.913Z,0.00
2019-03-08T00:46:13.912Z,0.00
2019-03-08T00:47:13.901Z,0.00
2019-03-08T00:48:13.891Z,0.00
2019-03-08T00:49:13.881Z,0.00
2019-03-08T00:50:13.887Z,0.00
2019-03-08T00:51:13.862Z,0.00
2019-03-08T00:52:13.856Z,0.00
2019-03-08T00:53:15.670Z,0.00
2019-03-08T00:54:13.839Z,0.00
2019-03-08T00:55:13.836Z,0.00
2019-03-08T00:56:13.821Z,0.00
2019-03-08T00:57:13.814Z,0.00
2019-03-08T00:58:13.806Z,0.00
2019-03-08T00:59:14.574Z,0.00
2019-03-08T01:00:14.583Z,0.00
2019-03-08T01:01:13.787Z,0.00
2019-03-08T01:02:13.777Z,0.00
2019-03-08T01:03:13.806Z,0.00
2019-03-08T01:04:13.763Z,0.00
2019-03-08T01:05:13.750Z,0.00
2019-03-08T01:06:13.740Z,0.00
2019-03-08T01:07:13.737Z,0.00
2019-03-08T01:08:13.727Z,0.00
2019-03-08T01:09:13.722Z,0.00
2019-03-08T01:10:13.706Z,0.00
2019-03-08T01:11:14.577Z,0.00
2019-03-08T01:12:13.695Z,0.00
2019-03-08T01:13:13.689Z,0.00
2019-03-08T01:14:13.706Z,0.00
2019-03-08T01:15:13.670Z,0.00
2019-03-08T01:16:13.672Z,0.00
2019-03-08T01:17:13.652Z,0.00
2019-03-08T01:18:14.582Z,0.00
2019-03-08T01:19:13.629Z,0.00
2019-03-08T01:20:13.645Z,0.00
2019-03-08T01:21:13.638Z,0.00
2019-03-08T01:22:13.610Z,0.00
2019-03-08T01:23:13.609Z,0.00
2019-03-08T01:24:13.624Z,0.00
2019-03-08T01:25:13.601Z,0.00
2019-03-08T01:26:13.592Z,0.00
2019-03-08T01:27:13.581Z,0.00
2019-03-08T01:28:13.574Z,0.00
2019-03-08T01:29:13.560Z,0.00
2019-03-08T01:30:13.549Z,0.00
2019-03-08T01:31:13.543Z,0.00
2019-03-08T01:32:13.529Z,0.00
2019-03-08T01:33:13.541Z,0.00
2019-03-08T01:34:13.524Z,0.00
2019-03-08T01:35:13.518Z,0.00
2019-03-08T01:36:13.517Z,0.00
2019-03-08T01:37:13.500Z,0.00
2019-03-08T01:38:13.482Z,0.00
2019-03-08T01:39:13.496Z,0.00
2019-03-08T01:40:13.473Z,0.00
2019-03-08T01:41:13.482Z,0.00
2019-03-08T01:42:13.457Z,0.00
2019-03-08T01:43:13.443Z,0.00
2019-03-08T01:44:13.440Z,0.00
2019-03-08T01:45:13.432Z,0.00
2019-03-08T01:46:13.439Z,0.00
2019-03-08T01:47:13.417Z,0.00
2019-03-08T01:48:13.413Z,0.00
2019-03-08T01:49:13.408Z,0.00
2019-03-08T01:50:13.404Z,0.00
2019-03-08T01:51:13.377Z,0.00
2019-03-08T01:52:13.387Z,0.00
2019-03-08T01:53:13.372Z,0.00
2019-03-08T01:54:13.373Z,0.00
2019-03-08T01:55:13.348Z,0.00
2019-03-08T01:56:13.346Z,0.00
2019-03-08T01:57:13.344Z,0.00
2019-03-08T01:58:13.342Z,0.00
2019-03-08T01:59:13.325Z,0.00
2019-03-08T02:00:13.320Z,0.00
2019-03-08T02:01:13.305Z,0.00
2019-03-08T02:02:13.292Z,0.00
2019-03-08T02:03:13.294Z,0.00
2019-03-08T02:04:13.284Z,0.00
2019-03-08T02:05:13.318Z,0.00
2019-03-08T02:06:13.273Z,0.00
2019-03-08T02:07:13.263Z,0.00
2019-03-08T02:08:13.247Z,0.00
2019-03-08T02:09:13.242Z,0.00
2019-03-08T02:10:13.231Z,0.00
2019-03-08T02:11:13.229Z,0.00
2019-03-08T02:12:13.220Z,0.00
2019-03-08T02:13:13.227Z,0.00
2019-03-08T02:14:13.198Z,0.00
2019-03-08T02:15:13.191Z,0.00
2019-03-08T02:16:13.188Z,0.00
2019-03-08T02:17:13.199Z,0.00
2019-03-08T02:18:13.185Z,0.00
2019-03-08T02:19:13.165Z,0.00
2019-03-08T02:20:13.159Z,0.00
2019-03-08T02:21:13.157Z,0.00
2019-03-08T02:22:13.134Z,0.00
2019-03-08T02:23:13.157Z,0.00
2019-03-08T02:24:13.118Z,0.00
2019-03-08T02:25:13.130Z,0.00
2019-03-08T02:26:13.108Z,0.00
2019-03-08T02:27:13.112Z,0.00
2019-03-08T02:28:13.092Z,0.00
2019-03-08T02:29:13.083Z,0.00
2019-03-08T02:30:13.072Z,0.00
2019-03-08T02:31:13.072Z,0.00
2019-03-08T02:32:13.062Z,0.00
2019-03-08T02:33:13.054Z,0.00
2019-03-08T02:34:13.040Z,0.00
2019-03-08T02:35:13.053Z,0.00
2019-03-08T02:36:13.024Z,0.00
2019-03-08T02:37:13.023Z,0.00
2019-03-08T02:38:13.016Z,0.00
2019-03-08T02:39:13.014Z,0.00
2019-03-08T02:40:13.010Z,0.00
2019-03-08T02:41:12.985Z,0.00
2019-03-08T02:42:12.975Z,0.00
2019-03-08T02:43:12.974Z,0.00
2019-03-08T02:44:12.969Z,0.00
2019-03-08T02:45:12.962Z,0.00
2019-03-08T02:46:12.945Z,0.00
2019-03-08T02:47:12.938Z,0.00
2019-03-08T02:48:12.930Z,0.00
2019-03-08T02:49:12.931Z,0.00
2019-03-08T02:50:12.919Z,0.00
2019-03-08T02:51:12.906Z,0.00
2019-03-08T02:52:12.909Z,0.00
2019-03-08T02:53:12.909Z,0.00
2019-03-08T02:54:12.881Z,0.00
2019-03-08T02:55:12.881Z,0.00
2019-03-08T02:56:12.868Z,0.00
2019-03-08T02:57:12.861Z,0.00
2019-03-08T02:58:12.872Z,0.00
2019-03-08T02:59:12.848Z,0.00
2019-03-08T03:00:12.843Z,0.00
2019-03-08T03:01:12.824Z,0.00
2019-03-08T03:02:12.840Z,0.00
2019-03-08T03:03:12.811Z,0.00
2019-03-08T03:04:12.817Z,0.00
2019-03-08T03:05:12.793Z,0.00
2019-03-08T03:06:12.785Z,0.00
2019-03-08T03:07:12.784Z,0.00
2019-03-08T03:08:12.772Z,0.00
2019-03-08T03:09:12.768Z,0.00
2019-03-08T03:10:12.763Z,0.00
2019-03-08T03:11:12.747Z,0.00
2019-03-08T03:12:12.743Z,0.00
2019-03-08T03:13:12.736Z,0.00
2019-03-08T03:14:12.729Z,0.00
2019-03-08T03:15:12.720Z,0.00
2019-03-08T03:16:12.729Z,0.00
2019-03-08T03:17:12.696Z,0.00
2019-03-08T03:18:12.782Z,0.00
2019-03-08T03:19:12.699Z,0.00
2019-03-08T03:20:12.675Z,0.00
2019-03-08T03:21:12.670Z,0.00
2019-03-08T03:22:12.663Z,0.00
2019-03-08T03:23:12.655Z,0.00
2019-03-08T03:24:12.649Z,0.00
2019-03-08T03:25:12.637Z,0.00
2019-03-08T03:26:12.627Z,0.00
2019-03-08T03:27:12.622Z,0.00
2019-03-08T03:28:12.623Z,0.00
2019-03-08T03:29:12.605Z,0.00
2019-03-08T03:30:12.602Z,0.00
2019-03-08T03:31:12.597Z,0.00
2019-03-08T03:32:12.586Z,0.00
2019-03-08T03:33:12.575Z,0.00
2019-03-08T03:34:12.572Z,0.00
2019-03-08T03:35:12.565Z,0.00
2019-03-08T03:36:12.551Z,0.00
2019-03-08T03:37:12.547Z,0.00
2019-03-08T03:38:12.532Z,0.00
2019-03-08T03:39:12.535Z,0.00
2019-03-08T03:40:12.520Z,0.00
2019-03-08T03:41:12.510Z,0.00
2019-03-08T03:42:12.500Z,0.00
2019-03-08T03:43:12.493Z,0.00
2019-03-08T03:44:12.486Z,0.00
2019-03-08T03:45:12.479Z,0.00
2019-03-08T03:46:12.467Z,0.00
2019-03-08T03:47:12.462Z,0.00
2019-03-08T03:48:12.461Z,0.00
2019-03-08T03:49:12.451Z,0.00
2019-03-08T03:50:12.441Z,0.00
2019-03-08T03:51:12.432Z,0.00
2019-03-08T03:52:12.428Z,0.00
2019-03-08T03:53:12.415Z,0.00
2019-03-08T03:54:12.406Z,0.00
2019-03-08T03:55:12.400Z,0.00
2019-03-08T03:56:12.389Z,0.00
2019-03-08T03:57:12.383Z,0.00
2019-03-08T03:58:12.370Z,0.00
2019-03-08T03:59:12.357Z,0.00
2019-03-08T04:00:12.363Z,0.00
2019-03-08T04:01:12.351Z,0.00
2019-03-08T04:02:12.344Z,0.00
2019-03-08T04:03:12.326Z,0.00
2019-03-08T04:04:12.320Z,0.00
2019-03-08T04:05:12.317Z,0.00
2019-03-08T04:06:12.314Z,0.00
2019-03-08T04:07:12.303Z,0.00
2019-03-08T04:08:13.153Z,0.00
2019-03-08T04:09:12.291Z,0.00
2019-03-08T04:10:12.276Z,0.00
2019-03-08T04:11:12.268Z,0.00
2019-03-08T04:12:13.152Z,0.00
2019-03-08T04:13:12.253Z,0.00
2019-03-08T04:14:12.248Z,0.00
2019-03-08T04:15:12.237Z,0.00
2019-03-08T04:16:12.236Z,0.00
2019-03-08T04:17:12.216Z,0.00
2019-03-08T04:18:12.214Z,0.00
2019-03-08T04:19:12.206Z,0.00
2019-03-08T04:20:12.203Z,0.00
2019-03-08T04:21:12.191Z,0.00
2019-03-08T04:22:12.178Z,0.00
2019-03-08T04:23:12.163Z,0.00
2019-03-08T04:24:12.167Z,0.00
2019-03-08T04:25:12.160Z,0.00
2019-03-08T04:26:12.148Z,0.00
2019-03-08T04:27:12.145Z,0.00
2019-03-08T04:28:12.132Z,0.00
2019-03-08T04:29:12.125Z,0.00
2019-03-08T04:30:12.669Z,0.00
2019-03-08T04:31:12.135Z,0.00
2019-03-08T04:32:12.116Z,0.00
2019-03-08T04:33:12.097Z,0.00
2019-03-08T04:34:12.084Z,0.00
2019-03-08T04:35:12.080Z,0.00
2019-03-08T04:36:12.076Z,0.00
2019-03-08T04:37:12.063Z,0.00
2019-03-08T04:38:12.054Z,0.00
2019-03-08T04:39:12.041Z,0.00
2019-03-08T04:40:12.035Z,0.00
2019-03-08T04:41:12.028Z,0.00
2019-03-08T04:42:12.016Z,0.00
2019-03-08T04:43:12.005Z,0.00
2019-03-08T04:44:12.002Z,0.00
2019-03-08T04:45:11.999Z,0.00
2019-03-08T04:46:11.989Z,0.00
2019-03-08T04:47:12.002Z,0.00
2019-03-08T04:48:11.975Z,0.00
2019-03-08T04:49:11.969Z,0.00
2019-03-08T04:50:11.963Z,0.00
2019-03-08T04:51:11.943Z,0.00
2019-03-08T04:52:11.941Z,0.00
2019-03-08T04:53:11.927Z,0.00
2019-03-08T04:54:11.922Z,0.00
2019-03-08T04:55:11.916Z,0.00
2019-03-08T04:56:11.905Z,0.00
2019-03-08T04:57:11.903Z,0.00
2019-03-08T05:00:05.012Z,0.00
2019-03-08T05:00:44.374Z,0.00
2019-03-08T05:01:43.976Z,0.00
2019-03-08T05:02:43.967Z,0.00
2019-03-08T05:03:43.963Z,0.00
2019-03-08T05:04:43.949Z,0.00
2019-03-08T05:05:43.941Z,0.00
2019-03-08T05:06:43.928Z,0.00
2019-03-08T05:07:43.948Z,0.00
2019-03-08T05:08:45.738Z,0.00
2019-03-08T05:09:43.915Z,0.00
2019-03-08T05:10:43.906Z,0.00
2019-03-08T05:11:43.891Z,0.00
2019-03-08T05:12:43.881Z,0.00
2019-03-08T05:13:43.873Z,0.00
2019-03-08T05:14:43.870Z,0.00
2019-03-08T05:15:43.861Z,0.00
2019-03-08T05:16:43.859Z,0.00
2019-03-08T05:17:43.847Z,0.00
2019-03-08T05:18:43.834Z,0.00
2019-03-08T05:19:43.827Z,0.00
2019-03-08T05:20:43.813Z,0.00
2019-03-08T05:21:43.839Z,0.00
2019-03-08T05:22:43.804Z,0.00
2019-03-08T05:23:43.795Z,0.00
2019-03-08T05:24:43.804Z,0.00
2019-03-08T05:25:43.773Z,0.00
2019-03-08T05:26:43.769Z,0.00
2019-03-08T05:27:43.763Z,0.00
2019-03-08T05:28:43.752Z,0.00
2019-03-08T05:29:43.740Z,0.00
2019-03-08T05:30:43.735Z,0.00
2019-03-08T05:31:43.736Z,0.00
2019-03-08T05:32:43.735Z,0.00
2019-03-08T05:33:43.718Z,0.00
2019-03-08T05:34:43.710Z,0.00
2019-03-08T05:35:43.708Z,0.00
2019-03-08T05:36:43.689Z,0.00
2019-03-08T05:37:43.675Z,0.00
2019-03-08T05:38:43.667Z,0.00
2019-03-08T05:39:43.681Z,0.00
2019-03-08T05:40:43.670Z,0.00
2019-03-08T05:41:43.650Z,0.00
2019-03-08T05:42:43.649Z,0.00
2019-03-08T05:43:43.635Z,0.00
2019-03-08T05:44:43.626Z,0.00
2019-03-08T05:45:43.625Z,0.00
2019-03-08T05:46:47.484Z,4.00
2019-03-08T05:47:43.603Z,4.00
2019-03-08T05:48:43.588Z,0.00
2019-03-08T05:49:44.588Z,0.00
2019-03-08T05:50:43.570Z,4.00
2019-03-08T05:51:43.562Z,0.00
2019-03-08T05:52:43.557Z,0.00
2019-03-08T05:53:43.572Z,4.00
2019-03-08T05:54:43.544Z,8.00
2019-03-08T05:55:44.070Z,8.00
2019-03-08T05:56:43.529Z,12.00
2019-03-08T05:57:43.518Z,12.00
2019-03-08T05:58:43.524Z,16.00
2019-03-08T05:59:45.423Z,16.00
2019-03-08T06:00:43.492Z,20.00
2019-03-08T06:01:43.487Z,20.00
2019-03-08T06:02:43.476Z,20.00
2019-03-08T06:03:43.463Z,20.00
2019-03-08T06:04:43.460Z,32.00
2019-03-08T06:05:43.451Z,36.00
2019-03-08T06:06:43.444Z,36.00
2019-03-08T06:07:43.429Z,32.00
2019-03-08T06:08:43.428Z,24.00
2019-03-08T06:09:43.408Z,32.00
2019-03-08T06:10:43.408Z,40.00
2019-03-08T06:11:43.396Z,48.00
2019-03-08T06:12:43.390Z,56.00
2019-03-08T06:13:43.375Z,44.00
2019-03-08T06:14:43.376Z,52.00
2019-03-08T06:15:43.357Z,68.00
2019-03-08T06:16:43.361Z,64.00
2019-03-08T06:17:43.342Z,68.00
2019-03-08T06:18:43.341Z,76.00
2019-03-08T06:19:43.328Z,88.00
2019-03-08T06:20:43.320Z,92.00
2019-03-08T06:21:43.309Z,96.00
2019-03-08T06:22:43.299Z,100.00
2019-03-08T06:23:43.299Z,92.00
2019-03-08T06:24:43.287Z,108.00
2019-03-08T06:25:43.279Z,96.00
2019-03-08T06:26:43.271Z,76.00
2019-03-08T06:27:43.256Z,128.00
2019-03-08T06:28:43.251Z,100.00
2019-03-08T06:29:43.238Z,92.00
2019-03-08T06:30:43.238Z,140.00
2019-03-08T06:31:43.226Z,136.00
2019-03-08T06:32:43.211Z,144.00
2019-03-08T06:33:43.209Z,164.00
2019-03-08T06:34:43.198Z,176.00
2019-03-08T06:35:43.185Z,160.00
2019-03-08T06:36:43.179Z,180.00
2019-03-08T06:37:43.171Z,168.00
2019-03-08T06:38:43.164Z,216.00
2019-03-08T06:39:43.146Z,228.00
2019-03-08T06:40:43.137Z,212.00
2019-03-08T06:41:43.133Z,200.00
2019-03-08T06:42:43.128Z,192.00
2019-03-08T06:43:43.111Z,228.00
2019-03-08T06:44:43.110Z,244.00
2019-03-08T06:45:43.102Z,248.00
2019-03-08T06:46:43.088Z,240.00
2019-03-08T06:47:43.077Z,228.00
2019-03-08T06:48:43.075Z,244.00
2019-03-08T06:49:43.072Z,284.00
2019-03-08T06:50:43.060Z,328.00
2019-03-08T06:51:43.063Z,360.00
2019-03-08T06:52:43.033Z,384.00
2019-03-08T06:53:43.031Z,360.00
2019-03-08T06:54:43.015Z,324.00
2019-03-08T06:55:43.024Z,300.00
2019-03-08T06:56:43.004Z,248.00
2019-03-08T06:57:43.003Z,236.00
2019-03-08T06:58:42.982Z,232.00
2019-03-08T06:59:42.977Z,264.00
2019-03-08T07:00:42.974Z,316.00
2019-03-08T07:01:42.954Z,304.00
2019-03-08T07:02:43.046Z,296.00
2019-03-08T07:03:42.941Z,308.00
2019-03-08T07:04:42.931Z,312.00
2019-03-08T07:05:42.929Z,284.00
2019-03-08T07:06:42.907Z,316.00
2019-03-08T07:07:42.919Z,308.00
2019-03-08T07:08:42.903Z,284.00
2019-03-08T07:09:43.593Z,212.00
2019-03-08T07:10:42.885Z,208.00
2019-03-08T07:11:42.988Z,224.00
2019-03-08T07:12:42.860Z,232.00
2019-03-08T07:13:42.858Z,244.00
2019-03-08T07:14:42.847Z,344.00
2019-03-08T07:15:42.838Z,356.00
2019-03-08T07:16:42.840Z,212.00
2019-03-08T07:17:42.840Z,208.00
2019-03-08T07:18:42.811Z,320.00
2019-03-08T07:19:42.810Z,304.00
2019-03-08T07:20:42.797Z,328.00
2019-03-08T07:21:42.784Z,248.00
2019-03-08T07:22:42.775Z,292.00
2019-03-08T07:23:42.770Z,352.00
2019-03-08T07:24:42.756Z,280.00
2019-03-08T07:25:51.198Z,288.00
2019-03-08T07:26:42.742Z,328.00
2019-03-08T07:27:42.733Z,376.00
2019-03-08T07:28:42.733Z,432.00
2019-03-08T07:29:42.716Z,460.00
2019-03-08T07:30:42.716Z,484.00
2019-03-08T07:31:42.709Z,436.00
2019-03-08T07:32:42.685Z,444.00
2019-03-08T07:33:42.695Z,428.00
2019-03-08T07:34:42.685Z,312.00
2019-03-08T07:35:42.667Z,296.00
2019-03-08T07:36:42.647Z,272.00
2019-03-08T07:37:42.645Z,284.00
2019-03-08T07:38:42.626Z,300.00
2019-03-08T07:39:42.630Z,308.00
2019-03-08T07:40:42.617Z,332.00
2019-03-08T07:41:42.622Z,360.00
2019-03-08T07:42:42.603Z,328.00
2019-03-08T07:43:42.594Z,396.00
2019-03-08T07:44:42.582Z,328.00
2019-03-08T07:45:44.247Z,480.00
2019-03-08T07:46:42.564Z,580.00
2019-03-08T07:47:43.123Z,512.00
2019-03-08T07:48:42.561Z,400.00
2019-03-08T07:49:42.553Z,540.00
2019-03-08T07:50:42.529Z,788.00
2019-03-08T07:51:42.527Z,980.00
2019-03-08T07:52:42.523Z,1112.00
2019-03-08T07:53:42.509Z,1124.00
2019-03-08T07:54:42.499Z,1060.00
2019-03-08T07:55:42.491Z,992.00
2019-03-08T07:56:42.484Z,944.00
2019-03-08T07:57:42.516Z,900.00
2019-03-08T07:58:42.460Z,916.00
2019-03-08T07:59:42.455Z,1092.00
2019-03-08T08:00:42.446Z,1368.00
2019-03-08T08:01:42.438Z,1664.00
2019-03-08T08:02:42.438Z,1788.00
2019-03-08T08:03:42.422Z,1704.00
2019-03-08T08:04:42.409Z,1832.00
2019-03-08T08:05:42.401Z,1988.00
2019-03-08T08:06:42.398Z,2236.00
2019-03-08T08:07:42.387Z,2392.00
2019-03-08T08:08:51.176Z,2492.00
2019-03-08T08:09:42.378Z,2504.00
2019-03-08T08:10:42.359Z,2448.00
2019-03-08T08:11:42.348Z,2444.00
2019-03-08T08:12:42.348Z,2436.00
2019-03-08T08:13:42.338Z,2504.00
2019-03-08T08:14:42.334Z,2660.00
2019-03-08T08:15:42.331Z,2868.00
2019-03-08T08:16:42.313Z,2992.00
2019-03-08T08:17:43.129Z,3212.00
2019-03-08T08:18:43.128Z,3412.00
2019-03-08T08:19:42.286Z,3448.00
2019-03-08T08:20:42.283Z,3544.00
2019-03-08T08:21:42.291Z,3828.00
2019-03-08T08:22:42.261Z,4000.00
2019-03-08T08:23:42.252Z,3836.00
2019-03-08T08:24:42.251Z,3740.00
2019-03-08T08:25:42.241Z,3816.00
2019-03-08T08:26:42.233Z,4016.00
2019-03-08T08:27:42.226Z,4212.00
2019-03-08T08:28:49.705Z,4280.00
2019-03-08T08:29:42.207Z,4220.00
2019-03-08T08:30:42.201Z,4384.00
2019-03-08T08:31:42.192Z,4504.00
2019-03-08T08:32:42.191Z,4296.00
2019-03-08T08:33:42.187Z,4140.00
2019-03-08T08:34:42.174Z,4024.00
2019-03-08T08:35:42.166Z,3976.00
2019-03-08T08:36:42.156Z,3868.00
2019-03-08T08:37:42.149Z,3752.00
2019-03-08T08:38:42.144Z,3668.00
2019-03-08T08:39:42.146Z,3660.00
2019-03-08T08:40:42.128Z,3648.00
2019-03-08T08:41:42.118Z,3672.00
2019-03-08T08:42:42.114Z,3608.00
2019-03-08T08:43:42.106Z,3664.00
2019-03-08T08:44:42.101Z,3932.00
2019-03-08T08:45:42.095Z,3948.00
2019-03-08T08:46:42.090Z,3796.00
2019-03-08T08:47:42.082Z,3440.00
2019-03-08T08:48:42.071Z,3204.00
2019-03-08T08:49:42.067Z,3064.00
2019-03-08T08:50:42.060Z,2980.00
2019-03-08T08:51:42.050Z,2820.00
2019-03-08T08:52:42.052Z,2428.00
2019-03-08T08:53:42.039Z,2420.00
2019-03-08T08:54:42.032Z,2204.00
2019-03-08T08:55:44.640Z,2104.00
2019-03-08T08:56:42.017Z,2608.00
2019-03-08T08:57:42.017Z,2976.00
2019-03-08T08:58:42.004Z,2948.00
2019-03-08T08:59:42.000Z,2344.00
2019-03-08T09:00:41.989Z,2388.00
2019-03-08T09:01:42.643Z,2940.00
2019-03-08T09:02:41.982Z,3788.00
2019-03-08T09:03:41.973Z,3548.00
2019-03-08T09:04:41.968Z,3536.00
2019-03-08T09:05:41.961Z,3452.00
2019-03-08T09:06:41.952Z,2908.00
2019-03-08T09:07:41.946Z,2620.00
2019-03-08T09:08:41.942Z,2532.00
2019-03-08T09:09:41.931Z,2584.00
2019-03-08T09:10:41.927Z,2372.00
2019-03-08T09:11:48.507Z,2156.00
2019-03-08T09:12:41.914Z,2244.00
2019-03-08T09:13:41.911Z,2328.00
2019-03-08T09:14:41.896Z,2216.00
2019-03-08T09:15:41.891Z,2424.00
2019-03-08T09:16:41.889Z,2484.00
2019-03-08T09:17:41.881Z,2532.00
2019-03-08T09:18:41.873Z,2748.00
2019-03-08T09:19:41.867Z,2672.00
2019-03-08T09:20:41.860Z,2508.00
2019-03-08T09:21:41.844Z,2360.00
2019-03-08T09:22:41.844Z,2328.00
2019-03-08T09:23:41.841Z,2368.00
2019-03-08T09:24:41.833Z,2568.00
2019-03-08T09:25:41.829Z,2876.00
2019-03-08T09:26:41.818Z,2852.00
2019-03-08T09:27:41.823Z,2272.00
2019-03-08T09:28:41.812Z,1696.00
2019-03-08T09:29:41.800Z,1252.00
2019-03-08T09:30:41.792Z,828.00
2019-03-08T09:31:41.786Z,712.00
2019-03-08T09:32:41.773Z,1072.00
2019-03-08T09:33:41.770Z,1584.00
2019-03-08T09:34:41.761Z,1888.00
2019-03-08T09:35:41.754Z,1528.00
2019-03-08T09:36:41.746Z,1608.00
2019-03-08T09:37:41.745Z,1324.00
2019-03-08T09:38:41.734Z,1456.00
2019-03-08T09:39:41.734Z,1632.00
2019-03-08T09:40:41.719Z,1876.00
2019-03-08T09:41:41.718Z,1908.00
2019-03-08T09:42:41.708Z,1672.00
2019-03-08T09:43:41.704Z,1612.00
2019-03-08T09:44:41.693Z,1624.00
2019-03-08T09:45:41.687Z,1688.00
2019-03-08T09:46:41.676Z,1944.00
2019-03-08T09:47:41.668Z,2440.00
2019-03-08T09:48:48.341Z,2888.00
2019-03-08T09:49:43.012Z,3292.00
2019-03-08T09:50:41.652Z,3840.00
2019-03-08T09:51:41.644Z,3764.00
2019-03-08T09:52:41.632Z,3876.00
2019-03-08T09:53:41.634Z,3996.00
2019-03-08T09:54:41.614Z,3732.00
2019-03-08T09:55:41.613Z,3172.00
2019-03-08T09:56:41.642Z,2400.00
2019-03-08T09:57:41.601Z,2208.00
2019-03-08T09:58:42.166Z,2204.00
2019-03-08T09:59:41.581Z,2284.00
2019-03-08T10:00:41.577Z,2352.00
2019-03-08T10:01:41.589Z,2412.00
2019-03-08T10:02:41.564Z,2456.00
2019-03-08T10:03:41.558Z,2880.00
2019-03-08T10:04:41.547Z,2700.00
2019-03-08T10:05:41.544Z,3480.00
2019-03-08T10:06:41.534Z,3808.00
2019-03-08T10:07:41.526Z,3360.00
2019-03-08T10:08:41.524Z,3888.00
2019-03-08T10:09:41.518Z,3680.00
2019-03-08T10:10:41.511Z,3260.00
2019-03-08T10:11:41.505Z,2680.00
2019-03-08T10:12:41.490Z,2464.00
2019-03-08T10:13:41.486Z,2096.00
2019-03-08T10:14:41.484Z,1788.00
2019-03-08T10:15:41.473Z,1568.00
2019-03-08T10:16:41.466Z,1316.00
2019-03-08T10:17:41.459Z,1436.00
2019-03-08T10:18:41.449Z,1628.00
2019-03-08T10:19:41.444Z,1680.00
2019-03-08T10:20:41.446Z,1664.00
2019-03-08T10:21:41.431Z,1624.00
2019-03-08T10:22:41.422Z,1604.00
2019-03-08T10:23:41.421Z,1620.00
2019-03-08T10:24:42.184Z,1628.00
2019-03-08T10:25:41.405Z,1696.00
2019-03-08T10:26:41.397Z,1756.00
2019-03-08T10:27:41.390Z,1864.00
2019-03-08T10:28:41.384Z,1760.00
2019-03-08T10:29:41.372Z,1656.00
2019-03-08T10:30:41.375Z,1604.00
2019-03-08T10:31:41.359Z,1600.00
2019-03-08T10:32:41.357Z,1644.00
2019-03-08T10:33:46.503Z,1624.00
2019-03-08T10:34:41.342Z,1876.00
2019-03-08T10:35:41.337Z,2388.00
2019-03-08T10:36:41.317Z,2840.00
2019-03-08T10:37:41.318Z,2672.00
2019-03-08T10:38:41.312Z,2524.00
2019-03-08T10:39:41.313Z,2372.00
2019-03-08T10:40:41.299Z,2196.00
2019-03-08T10:41:41.300Z,2048.00
2019-03-08T10:42:41.283Z,2496.00
2019-03-08T10:43:41.279Z,3024.00
2019-03-08T10:44:41.272Z,2420.00
2019-03-08T10:45:41.261Z,2572.00
2019-03-08T10:46:41.259Z,2672.00
2019-03-08T10:47:41.249Z,3344.00
2019-03-08T10:48:41.240Z,4080.00
2019-03-08T10:49:41.234Z,5632.00
2019-03-08T10:50:41.226Z,5432.00
2019-03-08T10:51:41.219Z,4944.00
2019-03-08T10:52:41.217Z,4016.00
2019-03-08T10:53:41.210Z,3784.00
2019-03-08T10:54:41.203Z,3516.00
2019-03-08T10:55:41.195Z,4784.00
2019-03-08T10:56:41.182Z,5532.00
2019-03-08T10:57:41.179Z,4988.00
2019-03-08T10:58:41.175Z,4468.00
2019-03-08T10:59:41.166Z,4620.00
2019-03-08T11:00:41.161Z,5524.00
2019-03-08T11:01:41.159Z,5392.00
2019-03-08T11:02:41.149Z,5904.00
2019-03-08T11:03:41.139Z,5340.00
2019-03-08T11:04:41.135Z,4828.00
2019-03-08T11:05:41.133Z,4468.00
2019-03-08T11:06:41.124Z,3668.00
2019-03-08T11:07:41.126Z,3064.00
2019-03-08T11:08:41.109Z,2676.00
2019-03-08T11:09:41.099Z,2372.00
2019-03-08T11:10:41.099Z,2300.00
2019-03-08T11:11:41.092Z,2168.00
2019-03-08T11:12:41.082Z,1924.00
2019-03-08T11:13:43.467Z,2016.00
2019-03-08T11:14:41.076Z,2416.00
2019-03-08T11:15:41.073Z,2748.00
2019-03-08T11:16:41.059Z,3268.00
2019-03-08T11:17:50.339Z,3836.00
2019-03-08T11:18:41.056Z,4000.00
2019-03-08T11:19:41.046Z,4176.00
2019-03-08T11:20:41.040Z,3864.00
2019-03-08T11:21:41.032Z,3588.00
2019-03-08T11:22:41.026Z,2984.00
2019-03-08T11:23:41.018Z,2700.00
2019-03-08T11:24:41.026Z,2852.00
2019-03-08T11:25:41.010Z,2948.00
2019-03-08T11:26:40.999Z,3184.00
2019-03-08T11:27:40.995Z,2908.00
2019-03-08T11:28:41.709Z,2704.00
2019-03-08T11:29:40.986Z,2352.00
2019-03-08T11:30:41.710Z,2276.00
2019-03-08T11:31:40.971Z,1944.00
2019-03-08T11:32:40.969Z,1696.00
2019-03-08T11:33:40.966Z,2428.00
2019-03-08T11:34:40.948Z,2628.00
2019-03-08T11:35:40.946Z,2740.00
2019-03-08T11:36:40.941Z,3464.00
2019-03-08T11:37:40.940Z,3144.00
2019-03-08T11:38:40.933Z,2068.00
2019-03-08T11:39:40.926Z,1668.00
2019-03-08T11:40:40.919Z,1500.00
2019-03-08T11:41:40.916Z,1484.00
2019-03-08T11:42:40.911Z,1628.00
2019-03-08T11:43:40.903Z,1856.00
2019-03-08T11:44:40.906Z,2024.00
2019-03-08T11:45:40.893Z,2064.00
2019-03-08T11:46:40.880Z,2208.00
2019-03-08T11:47:40.885Z,2588.00
2019-03-08T11:48:40.873Z,3272.00
2019-03-08T11:49:42.484Z,3404.00
2019-03-08T11:50:40.863Z,3112.00
2019-03-08T11:51:40.859Z,2904.00
2019-03-08T11:52:40.845Z,2572.00
2019-03-08T11:53:40.848Z,2636.00
2019-03-08T11:54:41.217Z,2468.00
2019-03-08T11:55:40.828Z,2288.00
2019-03-08T11:56:40.824Z,2300.00
2019-03-08T11:57:40.817Z,2736.00
2019-03-08T11:58:40.806Z,3076.00
2019-03-08T11:59:40.803Z,3160.00
2019-03-08T12:00:40.798Z,3896.00
2019-03-08T12:01:40.791Z,4696.00
2019-03-08T12:02:40.780Z,4884.00
2019-03-08T12:03:40.781Z,4864.00
2019-03-08T12:04:40.900Z,4900.00
2019-03-08T12:05:40.762Z,4980.00
2019-03-08T12:06:40.761Z,5272.00
2019-03-08T12:07:40.753Z,5024.00
2019-03-08T12:08:40.747Z,5020.00
2019-03-08T12:09:40.738Z,5128.00
2019-03-08T12:10:41.222Z,4836.00
2019-03-08T12:11:40.726Z,4644.00
2019-03-08T12:12:40.725Z,4648.00
2019-03-08T12:13:40.717Z,4012.00
2019-03-08T12:14:40.716Z,3228.00
2019-03-08T12:15:40.704Z,2984.00
2019-03-08T12:16:40.702Z,2852.00
2019-03-08T12:17:40.691Z,2780.00
2019-03-08T12:18:40.684Z,3416.00
2019-03-08T12:19:40.683Z,3516.00
2019-03-08T12:20:40.676Z,3360.00
2019-03-08T12:21:40.669Z,3452.00
2019-03-08T12:22:40.663Z,3672.00
2019-03-08T12:23:40.658Z,4032.00
2019-03-08T12:24:40.650Z,4272.00
2019-03-08T12:25:41.004Z,4588.00
2019-03-08T12:26:40.644Z,4992.00
2019-03-08T12:27:40.641Z,5164.00
2019-03-08T12:28:40.635Z,4612.00
2019-03-08T12:29:40.624Z,3840.00
2019-03-08T12:30:40.620Z,4260.00
2019-03-08T12:31:40.617Z,4724.00
2019-03-08T12:32:40.614Z,4448.00
2019-03-08T12:33:40.617Z,3896.00
2019-03-08T12:34:40.609Z,3168.00
2019-03-08T12:35:40.597Z,2540.00
2019-03-08T12:36:40.590Z,2188.00
2019-03-08T12:37:40.585Z,2556.00
2019-03-08T12:38:40.580Z,2584.00
2019-03-08T12:39:40.576Z,2948.00
2019-03-08T12:40:40.601Z,2688.00
2019-03-08T12:41:40.564Z,2644.00
2019-03-08T12:42:40.556Z,2904.00
2019-03-08T12:43:40.555Z,3936.00